Time;durP1;ratioP1;P1;durP2;ratioP2;P2;SDS_P1;SDS_P2;PMS_P1;PMS_P2;Temp;Humidity;BMP_temperature;BMP_pressure;BME280_temperature;BME280_humidity;BME280_pressure;Samples;Min_cycle;Max_cycle;Signal;HPM_P1;HPM_P2
2023/04/16 00:02:02;;;;;;;49.83;31.03;;;8.90;1.00;;;;;;5013550;28;20672;-69
2023/04/16 00:04:29;;;;;;;51.80;32.17;;;8.90;1.00;;;;;;5030361;28;20208;-68
2023/04/16 00:06:57;;;;;;;56.67;32.57;;;8.90;1.00;;;;;;5052263;28;20651;-69
2023/04/16 00:09:24;;;;;;;55.40;32.63;;;8.80;1.00;;;;;;5048686;28;20253;-68
2023/04/16 00:11:51;;;;;;;64.37;33.70;;;8.90;1.00;;;;;;5027610;28;20250;-68
2023/04/16 00:14:18;;;;;;;53.57;32.93;;;8.80;1.00;;;;;;5021119;28;20200;-68
2023/04/16 00:16:45;;;;;;;50.77;32.83;;;8.90;1.00;;;;;;5011922;28;20286;-67
2023/04/16 00:19:12;;;;;;;52.37;32.73;;;8.90;1.00;;;;;;5029834;28;20219;-68
2023/04/16 00:21:39;;;;;;;58.70;34.33;;;8.90;1.00;;;;;;5024178;28;20197;-67
2023/04/16 00:24:06;;;;;;;58.97;34.53;;;8.80;1.00;;;;;;5049361;28;20274;-67
2023/04/16 00:26:36;;;;;;;63.80;33.60;;;8.90;1.00;;;;;;5028064;28;20295;-68
2023/04/16 00:29:03;;;;;;;56.03;33.37;;;8.80;1.00;;;;;;5030086;28;20215;-68
2023/04/16 00:31:32;;;;;;;53.70;33.37;;;8.80;1.00;;;;;;5009360;28;20739;-68
2023/04/16 00:33:59;;;;;;;61.70;34.67;;;8.80;1.00;;;;;;5055839;28;20270;-67
2023/04/16 00:36:27;;;;;;;51.83;32.90;;;8.80;1.00;;;;;;5048111;28;20215;-67
2023/04/16 00:38:54;;;;;;;58.90;34.50;;;8.80;1.00;;;;;;5015801;28;20561;-68
2023/04/16 00:41:22;;;;;;;62.03;34.00;;;8.80;1.00;;;;;;5016742;28;20187;-67
2023/04/16 00:43:49;;;;;;;59.40;33.73;;;8.80;1.00;;;;;;5026872;28;20625;-67
2023/04/16 00:46:18;;;;;;;60.83;35.27;;;8.80;1.00;;;;;;5029219;28;20580;-69
2023/04/16 00:48:46;;;;;;;63.43;34.10;;;8.90;1.00;;;;;;5009139;28;20227;-69
2023/04/16 00:51:13;;;;;;;58.83;34.63;;;8.80;1.00;;;;;;5022179;28;20580;-68
2023/04/16 00:53:41;;;;;;;59.97;34.30;;;8.80;1.00;;;;;;5019212;28;20667;-68
2023/04/16 00:56:09;;;;;;;60.97;34.27;;;8.80;1.00;;;;;;5029561;28;20200;-67
2023/04/16 00:58:37;;;;;;;61.00;34.03;;;8.90;1.00;;;;;;5047332;28;20210;-67
2023/04/16 01:01:05;;;;;;;61.50;35.93;;;8.90;1.00;;;;;;5022627;28;20278;-68
2023/04/16 01:03:43;;;;;;;71.40;35.27;;;8.80;1.00;;;;;;5020104;28;20250;-68
2023/04/16 01:06:10;;;;;;;61.43;33.93;;;8.80;1.00;;;;;;5045393;28;20279;-68
2023/04/16 01:08:38;;;;;;;55.87;32.70;;;8.80;1.00;;;;;;5041475;28;20202;-68
2023/04/16 01:11:05;;;;;;;56.00;32.87;;;8.80;1.00;;;;;;5026940;28;20255;-68
2023/04/16 01:13:37;;;;;;;58.57;32.90;;;8.80;1.00;;;;;;5050630;28;20203;-67
2023/04/16 01:16:06;;;;;;;57.10;33.53;;;8.80;1.00;;;;;;5032457;28;20293;-67
2023/04/16 01:18:35;;;;;;;59.20;33.57;;;8.80;1.00;;;;;;5025190;28;20574;-68
2023/04/16 01:21:03;;;;;;;60.33;33.37;;;8.80;1.00;;;;;;5016754;28;20195;-69
2023/04/16 01:23:30;;;;;;;62.63;33.97;;;8.80;1.00;;;;;;5017763;28;20196;-69
2023/04/16 01:25:57;;;;;;;62.17;32.43;;;8.80;1.00;;;;;;5043564;28;20256;-68
2023/04/16 01:28:24;;;;;;;59.23;33.07;;;8.80;1.00;;;;;;5028981;28;20195;-68
2023/04/16 01:30:51;;;;;;;61.63;33.97;;;8.80;1.00;;;;;;5032682;28;20230;-68
2023/04/16 01:33:37;;;;;;;56.40;33.10;;;8.80;1.00;;;;;;5029882;28;20188;-68
2023/04/16 01:36:05;;;;;;;64.10;33.80;;;8.70;1.00;;;;;;5032018;28;20840;-68
2023/04/16 01:38:32;;;;;;;65.27;33.73;;;8.80;1.00;;;;;;5021871;28;20188;-69
2023/04/16 01:41:00;;;;;;;62.83;34.33;;;8.80;1.00;;;;;;5018105;28;20188;-70
2023/04/16 01:43:28;;;;;;;61.93;34.87;;;8.80;1.00;;;;;;5023288;28;20270;-70
2023/04/16 01:46:14;;;;;;;63.30;35.07;;;8.80;1.00;;;;;;5028568;28;20191;-70
2023/04/16 01:48:41;;;;;;;61.97;33.53;;;8.80;1.00;;;;;;5011028;28;20196;-69
2023/04/16 01:51:09;;;;;;;63.73;34.47;;;8.80;1.00;;;;;;5028698;28;20290;-69
2023/04/16 01:53:36;;;;;;;62.60;35.47;;;8.80;1.00;;;;;;5029620;28;20200;-68
2023/04/16 01:56:03;;;;;;;65.33;36.00;;;8.70;1.00;;;;;;5047000;28;20191;-69
2023/04/16 01:58:32;;;;;;;71.67;36.47;;;8.70;1.00;;;;;;5028639;28;20602;-68
2023/04/16 02:00:59;;;;;;;65.83;36.43;;;8.80;1.00;;;;;;5027887;28;20219;-68
2023/04/16 02:03:27;;;;;;;60.63;37.17;;;8.80;1.00;;;;;;5039163;28;20216;-67
2023/04/16 02:05:54;;;;;;;63.57;35.43;;;8.80;1.00;;;;;;5038148;28;20582;-69
2023/04/16 02:08:22;;;;;;;67.53;36.50;;;8.80;1.00;;;;;;5016583;28;20208;-68
2023/04/16 02:10:49;;;;;;;64.90;36.23;;;8.80;1.00;;;;;;5028650;28;20318;-70
2023/04/16 02:13:16;;;;;;;63.40;36.43;;;8.80;1.00;;;;;;5041649;28;20266;-70
2023/04/16 02:15:47;;;;;;;64.43;36.13;;;8.80;1.00;;;;;;5027039;28;20212;-67
2023/04/16 02:18:17;;;;;;;63.03;36.90;;;8.80;1.00;;;;;;5029286;28;20697;-70
2023/04/16 02:20:48;;;;;;;63.43;35.93;;;8.80;1.00;;;;;;5035574;28;20229;-70
2023/04/16 02:23:16;;;;;;;60.77;35.90;;;8.90;1.00;;;;;;5016463;28;20184;-68
2023/04/16 02:25:46;;;;;;;65.67;35.83;;;8.80;1.00;;;;;;5028972;28;20264;-69
2023/04/16 02:28:15;;;;;;;66.50;35.80;;;8.80;1.00;;;;;;5034178;28;20295;-69
2023/04/16 02:30:44;;;;;;;69.70;37.30;;;8.80;1.00;;;;;;5046148;28;20675;-68
2023/04/16 02:33:13;;;;;;;63.33;35.47;;;8.80;1.00;;;;;;5035433;28;20631;-69
2023/04/16 02:35:50;;;;;;;66.33;36.83;;;8.80;1.00;;;;;;5024896;28;20223;-68
2023/04/16 02:38:18;;;;;;;71.90;37.37;;;8.80;1.00;;;;;;5036256;28;20610;-68
2023/04/16 02:40:45;;;;;;;65.20;36.37;;;8.80;1.00;;;;;;5017837;28;20293;-68
2023/04/16 02:43:12;;;;;;;63.83;37.33;;;8.80;1.00;;;;;;5011123;28;20192;-68
2023/04/16 02:45:39;;;;;;;59.47;37.60;;;8.80;1.00;;;;;;5030445;28;20199;-68
2023/04/16 02:48:07;;;;;;;60.63;36.23;;;8.80;1.00;;;;;;5051845;28;20655;-68
2023/04/16 02:50:34;;;;;;;58.60;35.27;;;8.80;1.00;;;;;;5035149;28;20294;-70
2023/04/16 02:53:02;;;;;;;62.23;37.27;;;8.80;1.00;;;;;;5057267;28;20205;-70
2023/04/16 02:55:29;;;;;;;62.77;36.40;;;8.80;1.00;;;;;;5056307;28;20195;-70
2023/04/16 02:57:56;;;;;;;63.33;36.97;;;8.80;1.00;;;;;;5031912;28;20221;-71
2023/04/16 03:00:23;;;;;;;48.90;34.43;;;8.80;1.00;;;;;;5034718;28;20215;-71
2023/04/16 03:02:50;;;;;;;61.40;37.53;;;8.90;1.00;;;;;;5044246;28;20211;-72
2023/04/16 03:05:17;;;;;;;58.97;35.93;;;8.80;1.00;;;;;;5056090;28;20663;-71
2023/04/16 03:07:45;;;;;;;59.53;34.47;;;8.80;1.00;;;;;;5049964;28;20651;-71
2023/04/16 03:10:14;;;;;;;53.80;35.30;;;8.90;1.00;;;;;;5011111;28;20231;-71
2023/04/16 03:12:44;;;;;;;52.40;35.13;;;8.90;1.00;;;;;;5027841;28;20210;-71
2023/04/16 03:15:11;;;;;;;56.73;35.80;;;8.90;1.00;;;;;;5030033;28;20652;-71
2023/04/16 03:17:38;;;;;;;55.30;33.97;;;8.90;1.00;;;;;;5003788;28;20205;-71
2023/04/16 03:20:06;;;;;;;53.93;34.07;;;8.90;1.00;;;;;;5011838;28;20219;-71
2023/04/16 03:22:33;;;;;;;58.07;36.40;;;8.90;1.00;;;;;;5009171;28;20695;-70
2023/04/16 03:25:00;;;;;;;59.87;36.80;;;8.90;1.00;;;;;;5013471;28;20287;-70
2023/04/16 03:27:27;;;;;;;58.27;35.50;;;8.90;1.00;;;;;;5024842;28;20192;-70
2023/04/16 03:29:54;;;;;;;59.93;36.83;;;8.90;1.00;;;;;;5018492;28;20199;-70
2023/04/16 03:32:21;;;;;;;61.03;36.27;;;8.90;1.00;;;;;;5011295;28;20203;-70
2023/04/16 03:34:48;;;;;;;59.07;36.57;;;8.90;1.00;;;;;;5020175;28;20188;-71
2023/04/16 03:37:15;;;;;;;61.90;36.97;;;9.00;1.00;;;;;;5023552;28;20206;-71
2023/04/16 03:39:42;;;;;;;60.07;37.17;;;8.90;1.00;;;;;;5010916;28;20227;-71
2023/04/16 03:42:10;;;;;;;61.87;37.37;;;8.90;1.00;;;;;;5014622;28;20676;-70
2023/04/16 03:44:37;;;;;;;58.73;36.30;;;8.90;1.00;;;;;;5007192;28;20212;-72
2023/04/16 03:47:04;;;;;;;64.03;37.27;;;8.90;1.00;;;;;;5012090;28;20199;-71
2023/04/16 03:49:31;;;;;;;56.20;37.33;;;8.90;1.00;;;;;;5025713;28;20668;-72
2023/04/16 03:51:59;;;;;;;56.50;37.70;;;8.90;1.00;;;;;;5010012;28;20207;-71
2023/04/16 03:54:25;;;;;;;58.07;36.70;;;9.00;1.00;;;;;;5022838;28;20188;-70
2023/04/16 03:57:04;;;;;;;57.43;36.77;;;8.90;1.00;;;;;;5016449;28;20299;-70
2023/04/16 03:59:32;;;;;;;63.43;38.10;;;8.90;99.90;;;;;;5014140;28;20211;-70
2023/04/16 04:01:59;;;;;;;61.83;37.10;;;9.00;99.90;;;;;;5017385;28;20196;-71
2023/04/16 04:04:26;;;;;;;57.57;38.33;;;9.00;99.90;;;;;;5027634;28;20772;-71
2023/04/16 04:06:53;;;;;;;58.53;37.90;;;9.00;99.90;;;;;;5025837;28;20389;-71
2023/04/16 04:09:21;;;;;;;63.73;39.20;;;9.00;99.90;;;;;;5010201;28;20203;-72
2023/04/16 04:11:49;;;;;;;57.03;37.63;;;9.00;99.90;;;;;;5028857;28;20227;-72
2023/04/16 04:14:16;;;;;;;57.73;37.23;;;9.00;99.90;;;;;;5026715;28;20204;-72
2023/04/16 04:16:43;;;;;;;59.27;39.37;;;9.00;99.90;;;;;;5032023;28;20215;-72
2023/04/16 04:19:10;;;;;;;60.67;39.33;;;9.00;99.90;;;;;;5029503;28;20736;-72
2023/04/16 04:21:37;;;;;;;64.07;39.20;;;9.00;99.90;;;;;;5025075;28;20253;-72
2023/04/16 04:24:05;;;;;;;58.17;39.00;;;9.00;99.90;;;;;;5027569;28;20722;-71
2023/04/16 04:26:32;;;;;;;61.87;40.37;;;8.90;99.90;;;;;;5023866;28;20198;-71
2023/04/16 04:28:59;;;;;;;64.67;41.27;;;8.90;99.90;;;;;;5054505;28;20194;-75
2023/04/16 04:31:26;;;;;;;61.43;38.97;;;9.00;99.90;;;;;;5046935;28;20279;-74
2023/04/16 04:33:54;;;;;;;53.97;37.57;;;9.00;99.90;;;;;;5022164;28;20210;-73
2023/04/16 04:36:22;;;;;;;61.93;38.27;;;9.00;99.90;;;;;;5030138;28;20207;-73
2023/04/16 04:38:49;;;;;;;59.23;37.63;;;9.00;99.90;;;;;;5042540;28;20285;-72
2023/04/16 04:41:16;;;;;;;60.33;36.77;;;9.10;99.90;;;;;;5025399;28;20203;-73
2023/04/16 04:43:43;;;;;;;57.83;36.37;;;9.10;99.90;;;;;;5025631;28;20322;-75
2023/04/16 04:46:10;;;;;;;59.97;38.60;;;9.00;99.90;;;;;;5030200;28;20207;-73
2023/04/16 04:48:39;;;;;;;51.73;36.07;;;9.00;99.90;;;;;;5039509;28;20240;-73
2023/04/16 04:51:06;;;;;;;51.70;34.73;;;9.00;99.90;;;;;;5028645;28;20206;-72
2023/04/16 04:53:33;;;;;;;58.97;37.17;;;9.00;99.90;;;;;;5028253;28;20195;-71
2023/04/16 04:56:00;;;;;;;48.50;34.67;;;9.00;99.90;;;;;;5030509;28;20196;-72
2023/04/16 04:58:39;;;;;;;54.10;35.37;;;9.00;99.90;;;;;;5014418;28;20207;-71
2023/04/16 05:01:05;;;;;;;51.13;33.87;;;9.00;99.90;;;;;;5028708;28;20208;-71
2023/04/16 05:03:33;;;;;;;42.70;34.83;;;9.00;99.90;;;;;;5042383;28;20237;-71
2023/04/16 05:06:00;;;;;;;47.83;33.87;;;9.00;99.90;;;;;;5047747;28;20196;-71
2023/04/16 05:08:27;;;;;;;46.97;32.80;;;9.00;99.90;;;;;;5042691;28;20588;-71
2023/04/16 05:10:57;;;;;;;43.97;33.87;;;9.00;99.90;;;;;;5036980;28;20273;-71
2023/04/16 05:13:24;;;;;;;44.40;33.97;;;9.00;99.90;;;;;;5022383;28;20199;-69
2023/04/16 05:15:50;;;;;;;45.67;33.93;;;9.10;99.90;;;;;;5029881;28;20222;-69
2023/04/16 05:18:17;;;;;;;48.47;34.87;;;9.10;99.90;;;;;;5045842;28;20212;-70
2023/04/16 05:20:44;;;;;;;50.37;35.43;;;9.10;93.00;;;;;;5028341;28;20218;-70
2023/04/16 05:23:11;;;;;;;49.33;35.00;;;9.10;66.00;;;;;;5010213;28;20187;-71
2023/04/16 05:25:38;;;;;;;49.30;33.87;;;9.10;71.30;;;;;;5050432;28;20192;-72
2023/04/16 05:28:05;;;;;;;45.73;33.00;;;9.10;20.70;;;;;;5029939;28;20279;-72
2023/04/16 05:30:32;;;;;;;49.33;34.30;;;9.20;22.50;;;;;;5026603;28;20228;-71
2023/04/16 05:32:59;;;;;;;47.13;32.27;;;9.20;5.80;;;;;;5050030;28;20188;-72
2023/04/16 05:35:26;;;;;;;45.53;32.30;;;9.30;1.70;;;;;;5045543;28;20199;-71
2023/04/16 05:37:53;;;;;;;41.73;32.17;;;9.20;1.00;;;;;;5029155;28;20253;-70
2023/04/16 05:40:20;;;;;;;44.73;31.87;;;9.10;1.00;;;;;;5025141;28;20247;-71
2023/04/16 05:42:48;;;;;;;44.50;32.77;;;9.10;1.00;;;;;;5011420;28;20201;-69
2023/04/16 05:45:15;;;;;;;49.30;33.07;;;9.10;1.00;;;;;;5048786;28;20214;-70
2023/04/16 05:47:42;;;;;;;41.57;31.57;;;9.10;1.00;;;;;;5033607;28;20278;-71
2023/04/16 05:50:09;;;;;;;41.40;30.60;;;9.10;1.00;;;;;;5031835;28;20185;-70
2023/04/16 05:52:37;;;;;;;38.80;30.60;;;9.20;1.00;;;;;;5033338;28;20719;-70
2023/04/16 05:55:04;;;;;;;45.17;31.10;;;9.20;1.00;;;;;;5050050;28;20191;-71
2023/04/16 05:57:32;;;;;;;41.80;31.63;;;9.20;1.00;;;;;;5012654;28;20270;-69
2023/04/16 05:59:59;;;;;;;46.10;33.60;;;9.20;1.00;;;;;;5029085;28;20212;-69
2023/04/16 06:02:26;;;;;;;43.10;31.33;;;9.20;1.00;;;;;;5018462;28;20222;-69
2023/04/16 06:04:53;;;;;;;41.97;29.50;;;9.20;1.00;;;;;;5016767;28;20203;-69
2023/04/16 06:07:20;;;;;;;40.27;30.17;;;9.20;1.00;;;;;;5064999;28;20248;-69
2023/04/16 06:09:47;;;;;;;41.67;30.07;;;9.20;1.00;;;;;;5034707;28;20231;-69
2023/04/16 06:12:14;;;;;;;40.63;30.40;;;9.20;1.00;;;;;;5021204;28;20191;-70
2023/04/16 06:14:41;;;;;;;39.63;30.50;;;9.30;1.00;;;;;;5035447;28;20192;-69
2023/04/16 06:17:08;;;;;;;39.57;30.13;;;9.40;1.00;;;;;;5018085;28;20541;-69
2023/04/16 06:19:35;;;;;;;46.00;33.33;;;9.30;1.00;;;;;;5057669;28;20195;-72
2023/04/16 06:22:03;;;;;;;41.73;31.83;;;9.30;1.00;;;;;;5042054;28;20215;-70
2023/04/16 06:24:30;;;;;;;42.20;32.13;;;9.40;1.00;;;;;;5033532;28;20245;-71
2023/04/16 06:26:57;;;;;;;42.47;31.23;;;9.30;1.00;;;;;;5027108;28;20188;-71
2023/04/16 06:29:24;;;;;;;45.97;32.90;;;9.40;1.00;;;;;;5030273;28;20698;-71
2023/04/16 06:32:07;;;;;;;44.17;32.63;;;9.40;1.00;;;;;;5030778;28;20196;-72
2023/04/16 06:34:34;;;;;;;45.50;33.50;;;9.40;1.00;;;;;;5026943;28;20200;-71
2023/04/16 06:37:01;;;;;;;44.20;33.33;;;9.30;1.00;;;;;;5042294;28;20305;-76
2023/04/16 06:39:28;;;;;;;47.73;34.77;;;9.30;1.00;;;;;;5032138;28;20625;-72
2023/04/16 06:41:55;;;;;;;45.40;33.83;;;9.20;1.00;;;;;;5047666;28;20216;-72
2023/04/16 06:44:22;;;;;;;45.13;33.53;;;9.10;1.00;;;;;;5030623;28;20661;-70
2023/04/16 06:46:49;;;;;;;45.13;33.90;;;9.20;1.00;;;;;;5016343;28;20287;-70
2023/04/16 06:49:16;;;;;;;44.87;34.73;;;9.20;1.00;;;;;;5052042;28;20184;-73
2023/04/16 06:51:44;;;;;;;45.13;34.77;;;9.20;1.00;;;;;;5015739;28;20249;-72
2023/04/16 06:54:11;;;;;;;49.77;33.60;;;9.40;1.00;;;;;;5030171;28;20218;-72
2023/04/16 06:56:38;;;;;;;49.57;35.90;;;9.30;1.00;;;;;;5049678;28;20672;-70
2023/04/16 06:59:05;;;;;;;44.07;34.07;;;9.40;1.00;;;;;;5047526;28;20931;-70
2023/04/16 07:01:33;;;;;;;44.67;35.03;;;9.50;1.00;;;;;;5040564;28;20214;-68
2023/04/16 07:04:00;;;;;;;53.47;40.07;;;9.50;1.00;;;;;;5029100;28;20776;-70
2023/04/16 07:06:27;;;;;;;46.80;36.10;;;9.50;1.00;;;;;;5027694;28;20190;-70
2023/04/16 07:08:54;;;;;;;46.77;35.97;;;9.50;1.00;;;;;;5051444;28;20268;-69
2023/04/16 07:11:21;;;;;;;51.30;36.47;;;9.40;1.00;;;;;;5038617;28;20251;-68
2023/04/16 07:13:49;;;;;;;51.77;38.17;;;9.50;1.00;;;;;;5057545;28;20198;-68
2023/04/16 07:16:17;;;;;;;51.13;38.43;;;9.50;1.00;;;;;;5038687;28;20218;-69
2023/04/16 07:18:44;;;;;;;49.47;35.93;;;9.50;1.00;;;;;;5015124;28;20214;-69
2023/04/16 07:21:11;;;;;;;48.70;37.00;;;9.50;1.00;;;;;;5023597;28;20222;-69
2023/04/16 07:23:38;;;;;;;47.17;36.63;;;9.50;1.00;;;;;;5023315;28;20196;-68
2023/04/16 07:26:05;;;;;;;50.60;38.20;;;9.60;1.00;;;;;;5017764;28;20195;-69
2023/04/16 07:28:32;;;;;;;52.87;37.37;;;9.60;1.00;;;;;;5025187;28;20253;-69
2023/04/16 07:30:59;;;;;;;47.97;37.70;;;9.60;1.00;;;;;;5028016;28;20227;-69
2023/04/16 07:33:26;;;;;;;49.80;37.97;;;9.70;1.00;;;;;;5025269;28;20234;-69
2023/04/16 07:35:53;;;;;;;48.90;37.30;;;9.70;1.00;;;;;;5031985;28;20195;-70
2023/04/16 07:38:20;;;;;;;47.13;36.87;;;9.80;1.00;;;;;;5041777;28;20239;-70
2023/04/16 07:40:47;;;;;;;43.90;36.13;;;9.90;1.00;;;;;;5025510;28;20277;-70
2023/04/16 07:43:15;;;;;;;47.97;37.33;;;9.90;1.00;;;;;;5046776;28;20259;-70
2023/04/16 07:45:42;;;;;;;43.53;34.13;;;10.00;1.00;;;;;;5046501;28;20190;-69
2023/04/16 07:48:09;;;;;;;44.90;36.00;;;10.10;1.00;;;;;;5020744;28;20617;-70
2023/04/16 07:50:36;;;;;;;46.90;35.30;;;10.00;1.00;;;;;;5050187;28;20772;-71
2023/04/16 07:53:04;;;;;;;49.50;35.87;;;10.00;1.00;;;;;;5046933;28;20558;-69
2023/04/16 07:55:31;;;;;;;45.37;34.23;;;10.00;1.00;;;;;;5006928;28;20195;-71
2023/04/16 07:57:58;;;;;;;45.70;37.23;;;10.10;1.00;;;;;;5031495;28;20335;-71
2023/04/16 08:00:25;;;;;;;46.10;33.87;;;10.10;1.00;;;;;;5028375;28;20191;-71
2023/04/16 08:02:52;;;;;;;45.23;35.10;;;10.00;1.00;;;;;;5024513;28;20220;-71
2023/04/16 08:05:19;;;;;;;48.33;35.03;;;10.00;1.00;;;;;;5024531;28;20191;-71
2023/04/16 08:07:46;;;;;;;43.57;35.50;;;10.00;1.00;;;;;;5025840;28;20238;-71
2023/04/16 08:10:13;;;;;;;46.17;34.73;;;10.10;1.00;;;;;;5013020;28;20313;-71
2023/04/16 08:12:40;;;;;;;44.03;34.67;;;10.10;1.00;;;;;;5006820;28;20208;-71
2023/04/16 08:15:08;;;;;;;43.27;33.53;;;10.10;1.00;;;;;;5022399;28;20188;-71
2023/04/16 08:17:36;;;;;;;43.40;33.43;;;10.20;1.00;;;;;;5005201;28;20211;-71
2023/04/16 08:20:05;;;;;;;43.53;32.67;;;10.30;1.00;;;;;;5021571;28;20185;-71
2023/04/16 08:22:32;;;;;;;46.00;33.47;;;10.50;1.00;;;;;;5009143;28;20220;-70
2023/04/16 08:24:59;;;;;;;42.27;33.43;;;10.40;1.00;;;;;;5007868;28;20224;-71
2023/04/16 08:27:26;;;;;;;42.77;32.37;;;10.60;1.00;;;;;;5005855;28;20205;-71
2023/04/16 08:29:53;;;;;;;37.97;30.80;;;10.50;1.00;;;;;;4994269;28;20258;-71
2023/04/16 08:32:20;;;;;;;38.67;30.43;;;10.80;1.00;;;;;;5028708;28;20224;-71
2023/04/16 08:34:47;;;;;;;38.53;32.03;;;11.00;1.00;;;;;;5026135;28;20226;-72
2023/04/16 08:37:14;;;;;;;36.47;30.93;;;10.90;1.00;;;;;;5019608;28;20189;-71
2023/04/16 08:39:41;;;;;;;36.60;30.20;;;11.30;1.00;;;;;;5004416;28;20201;-72
2023/04/16 08:42:17;;;;;;;35.80;29.90;;;11.40;1.00;;;;;;5023121;28;20208;-72
2023/04/16 08:44:48;;;;;;;36.13;29.73;;;11.80;1.00;;;;;;5004946;28;20613;-71
2023/04/16 08:47:15;;;;;;;37.03;28.00;;;11.90;1.00;;;;;;5015172;28;20564;-71
2023/04/16 08:49:44;;;;;;;34.67;28.87;;;12.10;1.00;;;;;;5024281;28;20720;-71
2023/04/16 08:52:18;;;;;;;33.07;26.53;;;12.00;1.00;;;;;;5002783;28;20204;-70
2023/04/16 08:55:02;;;;;;;31.93;25.67;;;12.20;1.00;;;;;;5004169;28;20239;-72
2023/04/16 08:57:39;;;;;;;32.77;26.73;;;12.40;1.00;;;;;;4979719;28;20205;-72
2023/04/16 09:00:07;;;;;;;32.67;26.70;;;12.60;1.00;;;;;;5021744;28;20192;-74
2023/04/16 09:02:35;;;;;;;30.83;26.17;;;12.50;1.00;;;;;;4999164;28;20254;-71
2023/04/16 09:05:05;;;;;;;34.00;27.60;;;12.50;1.00;;;;;;5023417;28;20191;-70
2023/04/16 09:07:33;;;;;;;33.23;27.63;;;12.50;1.00;;;;;;5022536;28;20197;-69
2023/04/16 09:10:00;;;;;;;33.03;28.07;;;12.40;1.00;;;;;;5023581;28;20230;-70
2023/04/16 09:12:29;;;;;;;36.27;28.60;;;12.40;1.00;;;;;;5043243;28;20728;-71
2023/04/16 09:15:00;;;;;;;35.43;25.83;;;12.50;1.00;;;;;;5021256;28;20299;-70
2023/04/16 09:17:27;;;;;;;31.53;25.87;;;12.50;1.00;;;;;;5044835;28;20199;-72
2023/04/16 09:19:54;;;;;;;31.47;26.60;;;12.40;1.00;;;;;;5027680;28;20294;-70
2023/04/16 09:22:21;;;;;;;32.47;27.07;;;12.50;1.00;;;;;;5005932;28;20736;-70
2023/04/16 09:24:49;;;;;;;32.70;25.43;;;12.40;1.00;;;;;;5027177;28;20191;-70
2023/04/16 09:27:16;;;;;;;30.73;26.20;;;12.50;1.00;;;;;;5044063;28;20183;-70
2023/04/16 09:29:43;;;;;;;30.13;24.67;;;12.50;1.00;;;;;;5006413;28;20199;-70
2023/04/16 09:32:11;;;;;;;30.93;25.70;;;12.30;1.00;;;;;;5038983;28;20207;-71
2023/04/16 09:35:07;;;;;;;31.33;26.57;;;12.40;1.00;;;;;;5018574;28;20340;-72
2023/04/16 09:37:34;;;;;;;31.97;25.70;;;12.60;1.00;;;;;;5004420;28;20199;-71
2023/04/16 09:40:02;;;;;;;30.20;25.53;;;12.70;1.00;;;;;;5022774;28;20269;-72
2023/04/16 09:42:37;;;;;;;29.60;24.03;;;12.90;1.00;;;;;;5045331;28;20254;-71
2023/04/16 09:45:04;;;;;;;26.17;22.25;;;13.40;1.00;;;;;;5024642;28;20206;-70
2023/04/16 09:47:40;;;;;;;29.27;24.42;;;13.80;1.00;;;;;;5036866;28;20201;-70
2023/04/16 09:50:09;;;;;;;28.92;22.42;;;13.90;1.00;;;;;;5018222;28;20674;-71
2023/04/16 09:52:38;;;;;;;29.65;23.10;;;13.80;1.00;;;;;;5041952;28;20228;-71
2023/04/16 09:55:06;;;;;;;28.00;23.40;;;13.60;1.00;;;;;;5030238;28;20198;-71
2023/04/16 09:57:36;;;;;;;27.25;23.45;;;13.70;1.00;;;;;;5043972;28;20698;-70
2023/04/16 10:00:08;;;;;;;26.08;23.00;;;13.60;1.00;;;;;;5024897;28;20260;-71
2023/04/16 10:02:40;;;;;;;27.07;23.93;;;13.50;1.00;;;;;;5041798;28;20703;-71
2023/04/16 10:05:08;;;;;;;26.20;22.52;;;13.50;1.00;;;;;;5042708;28;20200;-70
2023/04/16 10:07:36;;;;;;;27.38;23.67;;;13.60;1.00;;;;;;5039191;28;20298;-70
2023/04/16 10:10:03;;;;;;;28.88;22.30;;;13.50;1.00;;;;;;5042771;28;20231;-70
2023/04/16 10:12:34;;;;;;;29.13;24.10;;;13.50;1.00;;;;;;5020388;28;20223;-70
2023/04/16 10:15:01;;;;;;;26.98;23.52;;;13.50;1.00;;;;;;5043470;28;20202;-71
2023/04/16 10:17:30;;;;;;;26.40;23.50;;;13.60;1.00;;;;;;5006783;28;20253;-71
2023/04/16 10:19:58;;;;;;;25.77;22.33;;;13.60;1.00;;;;;;5020589;28;20206;-71
2023/04/16 10:22:25;;;;;;;27.52;22.85;;;13.70;1.00;;;;;;5028655;28;20676;-71
2023/04/16 10:24:54;;;;;;;24.75;22.05;;;13.80;1.00;;;;;;5042224;28;20211;-70
2023/04/16 10:27:21;;;;;;;29.38;23.52;;;13.90;1.00;;;;;;5036423;28;20192;-71
2023/04/16 10:29:49;;;;;;;25.02;21.27;;;14.10;1.00;;;;;;5032891;28;20837;-72
2023/04/16 10:32:17;;;;;;;24.00;20.80;;;14.50;1.00;;;;;;5044907;28;20215;-71
2023/04/16 10:34:44;;;;;;;25.00;20.85;;;14.60;1.00;;;;;;5034598;28;20203;-71
2023/04/16 10:37:11;;;;;;;24.80;21.38;;;14.60;1.00;;;;;;5026675;28;20200;-71
2023/04/16 10:39:38;;;;;;;24.85;20.88;;;14.30;1.00;;;;;;5037346;28;20677;-72
2023/04/16 10:42:10;;;;;;;23.98;21.33;;;14.10;1.00;;;;;;5042635;28;20216;-71
2023/04/16 10:44:39;;;;;;;22.55;20.15;;;14.00;1.00;;;;;;5024489;28;20218;-70
2023/04/16 10:47:11;;;;;;;22.83;20.40;;;13.80;1.00;;;;;;5028935;28;20198;-71
2023/04/16 10:49:39;;;;;;;26.38;21.52;;;13.80;1.00;;;;;;5048900;28;20191;-71
2023/04/16 10:52:11;;;;;;;23.23;19.90;;;13.70;1.00;;;;;;5032461;28;20202;-71
2023/04/16 10:54:39;;;;;;;24.58;21.95;;;13.70;1.00;;;;;;5017567;28;20204;-73
2023/04/16 10:57:08;;;;;;;29.15;23.48;;;13.50;1.00;;;;;;5020738;28;20667;-71
2023/04/16 10:59:38;;;;;;;25.92;22.25;;;13.50;1.00;;;;;;5008408;28;20208;-70
2023/04/16 11:02:16;;;;;;;24.05;21.42;;;13.70;1.00;;;;;;5028159;28;20686;-71
2023/04/16 11:04:48;;;;;;;26.40;21.20;;;13.60;1.00;;;;;;5013269;28;20187;-71
2023/04/16 11:07:20;;;;;;;25.25;21.38;;;13.80;1.00;;;;;;5015680;28;20196;-71
2023/04/16 11:09:53;;;;;;;22.58;20.17;;;14.00;1.00;;;;;;5045079;28;20242;-71
2023/04/16 11:12:23;;;;;;;25.00;21.13;;;14.20;1.00;;;;;;5026236;28;20200;-72
2023/04/16 11:14:52;;;;;;;24.95;19.73;;;14.20;1.00;;;;;;5018575;28;20200;-72
2023/04/16 11:17:20;;;;;;;24.77;20.33;;;14.20;1.00;;;;;;5030531;28;20202;-72
2023/04/16 11:19:49;;;;;;;27.75;20.63;;;14.10;1.00;;;;;;5030596;28;20745;-71
2023/04/16 11:22:21;;;;;;;25.27;20.70;;;14.00;1.00;;;;;;5028864;28;20203;-72
2023/04/16 11:24:54;;;;;;;22.95;19.65;;;13.60;1.00;;;;;;5020801;28;20676;-71
2023/04/16 11:27:25;;;;;;;22.88;20.20;;;13.50;1.00;;;;;;5040443;28;20203;-71
2023/04/16 11:30:00;;;;;;;21.45;19.25;;;13.70;1.00;;;;;;5025988;28;20286;-71
2023/04/16 11:32:29;;;;;;;21.27;19.00;;;14.00;1.00;;;;;;5040456;28;20611;-71
2023/04/16 11:34:58;;;;;;;24.27;20.08;;;13.80;1.00;;;;;;5044877;28;20191;-72
2023/04/16 11:37:33;;;;;;;22.98;19.63;;;13.70;1.00;;;;;;5044476;28;20204;-71
2023/04/16 11:40:03;;;;;;;23.30;19.52;;;13.60;1.00;;;;;;5026618;28;20554;-70
2023/04/16 11:42:30;;;;;;;24.67;20.13;;;13.80;1.00;;;;;;5042243;28;20219;-71
2023/04/16 11:45:01;;;;;;;23.83;21.33;;;14.00;1.00;;;;;;5025745;28;20191;-72
2023/04/16 11:47:40;;;;;;;23.48;19.50;;;14.40;1.00;;;;;;5044441;28;20627;-72
2023/04/16 11:50:22;;;;;;;23.13;19.88;;;14.50;1.00;;;;;;5042739;28;20199;-74
2023/04/16 11:52:52;;;;;;;26.88;19.92;;;14.30;1.00;;;;;;5043019;28;20686;-72
2023/04/16 11:55:19;;;;;;;21.55;18.88;;;14.00;1.00;;;;;;5023027;28;20210;-71
2023/04/16 11:57:47;;;;;;;21.38;19.08;;;14.30;1.00;;;;;;5044014;28;20196;-72
2023/04/16 12:00:15;;;;;;;24.02;18.40;;;14.50;1.00;;;;;;5024075;28;20257;-71
2023/04/16 12:02:50;;;;;;;24.38;20.95;;;14.30;1.00;;;;;;5008138;28;20227;-70
2023/04/16 12:05:33;;;;;;;22.17;19.65;;;13.80;1.00;;;;;;5026360;28;20270;-71
2023/04/16 12:08:02;;;;;;;23.95;19.83;;;13.90;1.00;;;;;;5041367;28;20198;-70
2023/04/16 12:10:33;;;;;;;24.02;20.30;;;14.10;1.00;;;;;;5023078;28;20242;-70
2023/04/16 12:13:15;;;;;;;22.17;18.55;;;13.90;1.00;;;;;;5032086;28;20379;-70
2023/04/16 12:15:50;;;;;;;21.23;17.65;;;13.80;1.00;;;;;;5037166;28;20647;-72
2023/04/16 12:18:18;;;;;;;20.90;17.02;;;14.10;1.00;;;;;;5043720;28;20222;-71
2023/04/16 12:20:46;;;;;;;19.52;16.70;;;14.50;1.00;;;;;;5038296;28;20195;-70
2023/04/16 12:23:23;;;;;;;19.73;17.42;;;14.70;1.00;;;;;;5020571;28;20224;-69
2023/04/16 12:25:50;;;;;;;20.45;16.45;;;14.90;1.00;;;;;;5025295;28;20305;-69
2023/04/16 12:28:28;;;;;;;21.10;16.77;;;14.90;1.00;;;;;;5018148;28;20727;-70
2023/04/16 12:30:55;;;;;;;19.13;16.10;;;15.00;1.00;;;;;;5021197;28;20192;-70
2023/04/16 12:33:22;;;;;;;17.35;14.95;;;15.10;1.00;;;;;;5030302;28;20204;-69
2023/04/16 12:35:50;;;;;;;19.25;16.25;;;14.90;1.00;;;;;;5040682;28;20222;-69
2023/04/16 12:38:17;;;;;;;19.42;16.25;;;14.50;1.00;;;;;;5021835;28;20204;-69
2023/04/16 12:40:44;;;;;;;20.00;16.17;;;14.30;1.00;;;;;;5022569;28;20279;-69
2023/04/16 12:43:11;;;;;;;19.48;16.52;;;13.90;1.00;;;;;;5025241;28;20203;-69
2023/04/16 12:45:39;;;;;;;18.35;16.25;;;13.60;1.00;;;;;;5025394;28;20218;-69
2023/04/16 12:48:06;;;;;;;19.03;16.10;;;13.60;1.00;;;;;;5022280;28;20192;-69